Time;durP1;ratioP1;P1;durP2;ratioP2;P2;SDS_P1;SDS_P2;PMS_P1;PMS_P2;Temp;Humidity;BMP_temperature;BMP_pressure;BME280_temperature;BME280_humidity;BME280_pressure;Samples;Min_cycle;Max_cycle;Signal;HPM_P1;HPM_P2
2023/05/17 00:09:30;;;;;;;1999.90;999.90;;;11.00;99.90;;;;;;6736932;88;20197;-82
2023/05/17 00:19:31;;;;;;;1999.90;999.90;;;10.60;99.90;;;;;;6739557;88;20231;-81
2023/05/17 00:29:31;;;;;;;1999.90;999.90;;;10.40;99.90;;;;;;6741428;88;20210;-80
2023/05/17 00:39:32;;;;;;;1999.90;999.90;;;10.30;99.90;;;;;;6741565;88;20188;-81
2023/05/17 00:49:33;;;;;;;1999.90;999.90;;;10.00;99.90;;;;;;6752836;88;20216;-80
2023/05/17 00:59:33;;;;;;;1999.90;999.90;;;9.70;99.90;;;;;;6749183;88;20903;-80
2023/05/17 01:09:34;;;;;;;1999.90;999.90;;;9.60;99.90;;;;;;6759695;88;20178;-81
2023/05/17 01:19:57;;;;;;;1999.90;999.90;;;9.40;99.90;;;;;;6755342;88;21241;-81
2023/05/17 01:30:01;;;;;;;1999.90;999.90;;;9.10;99.90;;;;;;6744408;88;20199;-79
2023/05/17 01:40:02;;;;;;;1999.90;999.90;;;9.20;99.90;;;;;;6752668;88;20233;-82
2023/05/17 01:50:05;;;;;;;1999.90;999.90;;;9.10;99.90;;;;;;6746622;88;20197;-79
2023/05/17 02:00:08;;;;;;;1999.90;999.90;;;9.10;99.90;;;;;;6747622;88;20196;-79
2023/05/17 02:10:09;;;;;;;1999.90;999.90;;;9.10;99.90;;;;;;6742642;88;20677;-80
2023/05/17 02:20:10;;;;;;;1999.90;999.90;;;9.00;99.90;;;;;;6751182;88;20192;-80
2023/05/17 02:30:12;;;;;;;1999.90;999.90;;;8.90;99.90;;;;;;6752987;88;20225;-81
2023/05/17 02:40:13;;;;;;;1999.90;999.90;;;9.00;99.90;;;;;;6754978;88;20189;-80
2023/05/17 02:50:14;;;;;;;1999.90;999.90;;;8.90;99.90;;;;;;6749923;88;20272;-80
2023/05/17 03:00:15;;;;;;;1999.90;999.90;;;9.00;99.90;;;;;;6757293;88;20485;-79
2023/05/17 03:10:16;;;;;;;1999.90;999.90;;;9.00;99.90;;;;;;6744685;88;20285;-80
2023/05/17 03:20:17;;;;;;;1999.90;999.90;;;8.90;99.90;;;;;;6744340;88;20244;-80
2023/05/17 03:30:17;;;;;;;1999.90;999.90;;;9.00;99.90;;;;;;6750450;88;20203;-79
2023/05/17 03:40:18;;;;;;;1999.90;999.90;;;9.00;99.90;;;;;;6743759;88;20292;-80
2023/05/17 03:50:18;;;;;;;1999.90;999.90;;;8.70;99.90;;;;;;6752254;88;20296;-80
2023/05/17 04:00:20;;;;;;;1999.90;999.90;;;8.50;99.90;;;;;;6750639;88;20188;-80
2023/05/17 04:10:21;;;;;;;1999.90;999.90;;;8.50;99.90;;;;;;6743578;88;20218;-80
2023/05/17 04:20:21;;;;;;;1999.90;999.90;;;8.40;99.90;;;;;;6747908;88;20216;-80
2023/05/17 04:30:23;;;;;;;1999.90;999.90;;;8.30;99.90;;;;;;6755308;88;20212;-80
2023/05/17 04:40:23;;;;;;;1999.90;999.90;;;8.30;99.90;;;;;;6753172;88;20203;-80
2023/05/17 04:50:24;;;;;;;1999.90;999.90;;;8.50;99.90;;;;;;6753937;88;20333;-79
2023/05/17 05:00:25;;;;;;;1999.90;999.90;;;8.70;99.90;;;;;;6759178;88;20220;-79
2023/05/17 05:10:27;;;;;;;1999.90;999.90;;;8.90;99.90;;;;;;6758520;88;20210;-79
2023/05/17 05:20:28;;;;;;;1999.90;999.90;;;9.10;99.90;;;;;;6754620;88;20216;-79
2023/05/17 05:30:28;;;;;;;1999.90;999.90;;;9.30;99.90;;;;;;6752698;88;20280;-80
2023/05/17 05:40:29;;;;;;;1999.90;999.90;;;9.50;99.90;;;;;;6750897;88;20189;-78
2023/05/17 05:50:29;;;;;;;1999.90;999.90;;;9.50;99.90;;;;;;6760679;88;20280;-81
2023/05/17 06:00:30;;;;;;;1999.90;999.90;;;9.90;99.90;;;;;;6753219;88;20183;-79
2023/05/17 06:10:31;;;;;;;1999.90;999.90;;;10.20;99.90;;;;;;6745153;88;20243;-80
2023/05/17 06:30:35;;;;;;;1999.90;999.90;;;10.30;99.90;;;;;;6764421;88;20212;-80
2023/05/17 06:40:35;;;;;;;1999.90;999.90;;;10.30;99.90;;;;;;6759188;88;20779;-80
2023/05/17 06:50:36;;;;;;;1999.90;999.90;;;9.80;99.90;;;;;;6736540;88;20211;-80
2023/05/17 07:00:36;;;;;;;1999.90;999.90;;;9.60;99.90;;;;;;6734320;88;20713;-80
2023/05/17 07:10:37;;;;;;;1999.90;999.90;;;9.70;99.90;;;;;;6732998;88;20248;-80
2023/05/17 07:20:37;;;;;;;1999.90;999.90;;;9.90;99.90;;;;;;6752308;88;20276;-80
2023/05/17 07:30:38;;;;;;;1999.90;999.90;;;10.50;99.90;;;;;;6745610;88;20215;-80
2023/05/17 07:40:38;;;;;;;1999.90;999.90;;;11.10;99.90;;;;;;6745739;88;20188;-81
2023/05/17 07:50:46;;;;;;;1999.90;999.90;;;11.80;99.90;;;;;;6750219;88;20647;-81
2023/05/17 08:00:46;;;;;;;1999.90;999.90;;;12.70;99.90;;;;;;6747683;88;20177;-80
2023/05/17 08:10:47;;;;;;;1999.90;999.90;;;12.80;99.90;;;;;;6750999;88;20189;-80
2023/05/17 08:20:49;;;;;;;1999.90;999.90;;;13.70;99.90;;;;;;6756323;88;20240;-80
2023/05/17 08:30:49;;;;;;;1999.90;999.90;;;14.30;99.90;;;;;;6752015;88;20204;-80
2023/05/17 08:40:54;;;;;;;1999.90;999.90;;;15.60;99.90;;;;;;6754941;88;20193;-81
2023/05/17 08:50:55;;;;;;;1999.90;999.90;;;16.00;99.90;;;;;;6757533;88;20564;-80
2023/05/17 09:00:57;;;;;;;1999.90;999.90;;;16.60;99.90;;;;;;6757876;88;20205;-80
2023/05/17 09:10:58;;;;;;;1999.90;999.90;;;17.10;99.90;;;;;;6746332;88;20759;-80
2023/05/17 09:21:03;;;;;;;1999.90;999.90;;;17.70;98.10;;;;;;6750999;88;20260;-80
2023/05/17 09:31:07;;;;;;;;;;;18.00;95.80;;;;;;6751590;88;20482;-80
2023/05/17 09:41:08;;;;;;;1999.90;999.90;;;18.40;94.30;;;;;;6748390;88;20045;-79
2023/05/17 09:51:08;;;;;;;1999.90;999.90;;;18.60;93.10;;;;;;6749020;88;20180;-80
2023/05/17 10:01:10;;;;;;;1999.90;999.90;;;19.30;92.90;;;;;;6759820;88;20246;-79
2023/05/17 10:11:11;;;;;;;1999.90;999.90;;;19.40;91.70;;;;;;6754004;88;20209;-80
2023/05/17 10:21:12;;;;;;;1999.90;999.90;;;19.60;90.60;;;;;;6750901;88;20903;-80
2023/05/17 10:31:14;;;;;;;1999.90;999.90;;;19.60;90.70;;;;;;6752163;88;20281;-80
2023/05/17 10:41:17;;;;;;;1999.90;999.90;;;21.10;89.80;;;;;;6750483;88;20216;-80
2023/05/17 10:51:26;;;;;;;1999.90;999.90;;;19.90;90.10;;;;;;6754653;88;20201;-80
2023/05/17 11:01:52;;;;;;;1999.90;999.90;;;20.70;89.50;;;;;;6750424;88;20597;-79
2023/05/17 11:12:04;;;;;;;1999.90;999.90;;;20.10;88.40;;;;;;6749359;88;20212;-80
2023/05/17 11:22:10;;;;;;;1999.90;999.90;;;21.50;85.90;;;;;;6750682;88;20331;-81
2023/05/17 11:32:11;;;;;;;1999.90;999.90;;;21.70;86.60;;;;;;6750704;88;20217;-81
2023/05/17 11:42:24;;;;;;;1999.90;999.90;;;22.30;84.60;;;;;;6752466;88;20182;-80
2023/05/17 11:52:26;;;;;;;1999.90;999.90;;;21.90;83.10;;;;;;6751895;88;20231;-80
2023/05/17 12:02:29;;;;;;;1999.90;999.90;;;21.50;82.80;;;;;;6750739;88;20205;-80
2023/05/17 12:12:30;;;;;;;1999.90;999.90;;;21.80;82.10;;;;;;6754807;88;20193;-80
2023/05/17 12:22:31;;;;;;;1999.90;999.90;;;21.30;81.30;;;;;;6753080;88;20206;-81
2023/05/17 12:32:31;;;;;;;1999.90;999.90;;;21.70;82.10;;;;;;6745340;88;20200;-80
2023/05/17 12:42:32;;;;;;;1999.90;999.90;;;22.30;79.80;;;;;;6744805;88;20198;-80
2023/05/17 12:52:34;;;;;;;1999.90;999.90;;;22.50;80.30;;;;;;6743530;88;20707;-79
2023/05/17 13:02:34;;;;;;;1999.90;999.90;;;20.80;80.50;;;;;;6735167;88;20204;-82
2023/05/17 13:12:38;;;;;;;1999.90;999.90;;;21.20;80.30;;;;;;6729223;88;20271;-82
2023/05/17 13:22:45;;;;;;;1999.90;999.90;;;22.00;79.50;;;;;;6723397;88;20191;-80
2023/05/17 13:32:46;;;;;;;1999.90;999.90;;;22.20;79.40;;;;;;6725241;88;20214;-80
2023/05/17 13:42:47;;;;;;;1999.90;999.90;;;21.60;80.70;;;;;;6734560;88;20161;-81
2023/05/17 13:52:47;;;;;;;1999.90;999.90;;;22.10;79.00;;;;;;6728548;88;20197;-80
2023/05/17 14:02:48;;;;;;;1999.90;999.90;;;22.00;78.80;;;;;;6726387;88;20241;-80
2023/05/17 14:12:48;;;;;;;1999.90;999.90;;;21.30;78.40;;;;;;6729798;88;20200;-81
2023/05/17 14:22:50;;;;;;;1999.90;999.90;;;21.10;78.20;;;;;;6729440;88;20218;-80
2023/05/17 14:32:50;;;;;;;1999.90;999.90;;;21.10;78.60;;;;;;6729273;88;20177;-80
2023/05/17 14:42:51;;;;;;;1999.90;999.90;;;21.20;76.90;;;;;;6728450;88;20180;-80
2023/05/17 14:52:51;;;;;;;1999.90;999.90;;;21.20;77.70;;;;;;6728317;88;20228;-80
2023/05/17 15:02:52;;;;;;;1999.90;999.90;;;20.90;77.50;;;;;;6727817;88;20273;-80
2023/05/17 15:12:53;;;;;;;1999.90;999.90;;;20.50;77.50;;;;;;6726906;88;20190;-79
2023/05/17 15:22:53;;;;;;;1999.90;999.90;;;20.20;78.00;;;;;;6725843;88;20391;-80
2023/05/17 15:32:58;;;;;;;1999.90;999.90;;;20.40;77.80;;;;;;6726020;88;20283;-79
2023/05/17 15:42:58;;;;;;;1999.90;999.90;;;20.90;78.00;;;;;;6725518;88;20193;-79
2023/05/17 15:52:59;;;;;;;1999.90;999.90;;;20.10;77.80;;;;;;6724516;88;20290;-79
2023/05/17 16:02:59;;;;;;;1999.90;999.90;;;20.30;78.90;;;;;;6723614;88;20274;-79
2023/05/17 16:13:00;;;;;;;1999.90;999.90;;;20.50;77.40;;;;;;6723071;88;20185;-79
2023/05/17 16:23:00;;;;;;;1999.90;999.90;;;20.20;78.30;;;;;;6723373;88;20197;-80
2023/05/17 16:33:01;;;;;;;1999.90;999.90;;;20.70;77.30;;;;;;6729793;88;20702;-79
2023/05/17 16:43:02;;;;;;;1999.90;999.90;;;19.40;79.10;;;;;;6753042;88;20675;-80
2023/05/17 16:53:02;;;;;;;1999.90;999.90;;;18.90;78.50;;;;;;6755460;88;20260;-81
2023/05/17 17:03:03;;;;;;;1999.90;999.90;;;19.00;79.60;;;;;;6747097;88;20185;-81
2023/05/17 17:13:04;;;;;;;1999.90;999.90;;;18.90;79.20;;;;;;6745371;88;20212;-81
2023/05/17 17:23:05;;;;;;;1999.90;999.90;;;18.90;79.80;;;;;;6738843;88;20181;-82
2023/05/17 17:33:05;;;;;;;1999.90;999.90;;;18.60;80.10;;;;;;6765975;88;20210;-82
2023/05/17 17:43:06;;;;;;;1999.90;999.90;;;19.20;81.10;;;;;;6765282;88;20177;-83
2023/05/17 17:53:06;;;;;;;1999.90;999.90;;;18.90;81.20;;;;;;6768934;88;20205;-82
2023/05/17 18:03:07;;;;;;;1999.90;999.90;;;18.50;82.00;;;;;;6764518;88;20814;-80
2023/05/17 18:13:08;;;;;;;1999.90;999.90;;;17.80;81.70;;;;;;6768560;88;20169;-81
2023/05/17 18:23:15;;;;;;;1999.90;999.90;;;16.80;83.10;;;;;;6741026;77;20194;-78
2023/05/17 18:33:15;;;;;;;1999.90;999.90;;;16.30;84.70;;;;;;6740548;88;20204;-79
2023/05/17 18:43:16;;;;;;;1999.90;999.90;;;16.00;86.00;;;;;;6742157;88;20305;-80
2023/05/17 18:53:16;;;;;;;1999.90;999.90;;;15.80;86.70;;;;;;6743510;88;20358;-80
2023/05/17 19:03:17;;;;;;;1999.90;999.90;;;15.20;86.90;;;;;;6740271;88;20228;-81
2023/05/17 19:13:18;;;;;;;1999.90;999.90;;;14.90;88.00;;;;;;6747040;88;20269;-80
2023/05/17 19:23:20;;;;;;;1999.90;999.90;;;14.50;89.00;;;;;;6741597;88;20709;-79
2023/05/17 19:33:20;;;;;;;1999.90;999.90;;;14.20;89.90;;;;;;6742078;88;20205;-79
2023/05/17 19:43:21;;;;;;;1999.90;999.90;;;13.80;90.40;;;;;;6741278;88;20653;-79
2023/05/17 19:53:21;;;;;;;1999.90;999.90;;;13.60;90.90;;;;;;6746477;88;20217;-80
2023/05/17 20:03:22;;;;;;;1999.90;999.90;;;13.20;91.70;;;;;;6748145;88;20234;-81
2023/05/17 20:13:27;;;;;;;1999.90;999.90;;;13.10;92.10;;;;;;6750701;88;20506;-80
2023/05/17 20:23:27;;;;;;;1999.90;999.90;;;12.80;92.60;;;;;;6751235;88;20198;-80
2023/05/17 20:33:28;;;;;;;1999.90;999.90;;;12.50;95.20;;;;;;6743174;88;20185;-82
2023/05/17 20:43:28;;;;;;;1999.90;999.90;;;12.40;95.20;;;;;;6740633;88;20185;-81
2023/05/17 20:53:29;;;;;;;1999.90;999.90;;;12.30;95.00;;;;;;6729383;88;20203;-81
2023/05/17 21:03:33;;;;;;;1999.90;999.90;;;11.90;95.10;;;;;;6731200;88;20192;-81
2023/05/17 21:13:34;;;;;;;1999.90;999.90;;;11.70;95.80;;;;;;6731079;88;20335;-80
2023/05/17 21:23:34;;;;;;;1999.90;999.90;;;11.50;97.10;;;;;;6730829;88;20240;-81
2023/05/17 21:33:35;;;;;;;1999.90;999.90;;;11.30;97.30;;;;;;6734272;88;20704;-79
2023/05/17 21:43:36;;;;;;;1999.90;999.90;;;11.10;98.50;;;;;;6731433;88;20184;-79
2023/05/17 21:53:36;;;;;;;1999.90;999.90;;;11.00;99.50;;;;;;6730670;88;20299;-79
2023/05/17 22:03:37;;;;;;;1999.90;999.90;;;10.90;99.90;;;;;;6729490;88;20211;-79
2023/05/17 22:13:37;;;;;;;1999.90;999.90;;;10.90;99.90;;;;;;6728579;88;20641;-78
2023/05/17 22:23:38;;;;;;;1999.90;999.90;;;10.60;99.90;;;;;;6733125;88;21776;-78
2023/05/17 22:33:41;;;;;;;1999.90;999.90;;;10.70;99.90;;;;;;6730215;88;20584;-78
2023/05/17 22:43:42;;;;;;;1999.90;999.90;;;10.40;99.90;;;;;;6728399;88;20698;-77
2023/05/17 22:53:42;;;;;;;1999.90;999.90;;;10.20;99.90;;;;;;6728530;88;20233;-78
2023/05/17 23:03:43;;;;;;;1999.90;999.90;;;10.00;99.90;;;;;;6724652;88;20246;-79
2023/05/17 23:13:43;;;;;;;1999.90;999.90;;;9.90;99.90;;;;;;6728060;88;20380;-79
2023/05/17 23:23:46;;;;;;;1999.90;999.90;;;9.70;99.90;;;;;;6752226;88;20188;-78
2023/05/17 23:33:46;;;;;;;1999.90;999.90;;;9.60;99.90;;;;;;6744058;88;20338;-78
2023/05/17 23:43:47;;;;;;;1999.90;999.90;;;9.50;99.90;;;;;;6746000;88;21388;-80
2023/05/17 23:53:48;;;;;;;1999.90;999.90;;;9.50;99.90;;;;;;6745207;88;20212;-79
